createdAt,value
2022-09-12T00:01:45.537Z,14.65
2022-09-12T00:04:31.018Z,14.63
2022-09-12T00:07:16.961Z,14.57
2022-09-12T00:10:02.387Z,14.54
2022-09-12T00:12:48.351Z,14.51
2022-09-12T00:15:38.533Z,14.50
2022-09-12T00:18:23.970Z,14.44
2022-09-12T00:21:09.517Z,14.41
2022-09-12T00:23:55.843Z,14.36
2022-09-12T00:26:41.191Z,14.31
2022-09-12T00:29:26.785Z,14.26
2022-09-12T00:32:11.940Z,14.23
2022-09-12T00:34:58.107Z,14.18
2022-09-12T00:37:43.274Z,14.12
2022-09-12T00:40:28.561Z,14.10
2022-09-12T00:43:39.006Z,14.06
2022-09-12T00:46:52.932Z,14.05
2022-09-12T00:50:00.966Z,14.01
2022-09-12T00:52:52.377Z,14.03
2022-09-12T00:55:48.976Z,13.99
2022-09-12T00:58:40.765Z,14.01
2022-09-12T01:01:30.426Z,14.01
2022-09-12T01:04:21.939Z,14.02
2022-09-12T01:07:08.637Z,14.05
2022-09-12T01:09:53.814Z,14.05
2022-09-12T01:12:41.246Z,14.02
2022-09-12T01:15:26.514Z,13.97
2022-09-12T01:18:35.471Z,13.95
2022-09-12T01:21:51.011Z,13.91
2022-09-12T01:24:57.855Z,13.89
2022-09-12T01:28:11.961Z,13.84
2022-09-12T01:31:12.819Z,13.81
2022-09-12T01:34:01.632Z,13.80
2022-09-12T01:37:18.551Z,13.73
2022-09-12T01:40:16.475Z,13.70
2022-09-12T01:43:01.438Z,13.66
2022-09-12T01:46:03.174Z,13.62
2022-09-12T01:48:52.928Z,13.61
2022-09-12T01:51:45.015Z,13.54
2022-09-12T01:54:46.367Z,13.49
2022-09-12T01:57:36.587Z,13.49
2022-09-12T02:00:21.928Z,13.48
2022-09-12T02:03:21.138Z,13.45
2022-09-12T02:06:11.193Z,13.43
2022-09-12T02:09:03.267Z,13.41
2022-09-12T02:11:51.655Z,13.41
2022-09-12T02:14:41.663Z,13.44
2022-09-12T02:17:26.885Z,13.48
2022-09-12T02:20:26.026Z,13.51
2022-09-12T02:23:27.175Z,13.50
2022-09-12T02:26:21.125Z,13.49
2022-09-12T02:29:07.662Z,13.44
2022-09-12T02:31:59.166Z,13.42
2022-09-12T02:35:07.360Z,13.39
2022-09-12T02:38:20.900Z,13.38
2022-09-12T02:41:07.298Z,13.34
2022-09-12T02:43:53.934Z,13.36
2022-09-12T02:46:46.813Z,13.34
2022-09-12T02:49:32.082Z,13.35
2022-09-12T02:52:20.207Z,13.35
2022-09-12T02:55:06.671Z,13.34
2022-09-12T02:57:51.955Z,13.32
2022-09-12T03:00:57.308Z,13.30
2022-09-12T03:04:05.714Z,13.27
2022-09-12T03:07:06.198Z,13.23
2022-09-12T03:10:08.189Z,13.21
2022-09-12T03:13:19.637Z,13.19
2022-09-12T03:16:26.689Z,13.25
2022-09-12T03:19:20.648Z,13.24
2022-09-12T03:22:27.372Z,13.21
2022-09-12T03:25:20.553Z,13.15
2022-09-12T03:28:11.290Z,13.10
2022-09-12T03:30:56.605Z,13.10
2022-09-12T03:33:41.911Z,13.08
2022-09-12T03:36:29.969Z,13.05
2022-09-12T03:39:15.991Z,13.06
2022-09-12T03:42:01.416Z,13.10
2022-09-12T03:44:47.224Z,13.09
2022-09-12T03:47:32.557Z,13.07
2022-09-12T03:50:18.553Z,13.04
2022-09-12T03:53:04.121Z,13.03
2022-09-12T03:55:49.395Z,13.04
2022-09-12T03:58:36.246Z,13.03
2022-09-12T04:01:21.573Z,13.01
2022-09-12T04:04:06.914Z,12.98
2022-09-12T04:06:52.183Z,12.96
2022-09-12T04:09:37.872Z,12.97
2022-09-12T04:12:23.659Z,12.96
2022-09-12T04:15:09.466Z,13.00
2022-09-12T04:17:55.029Z,12.99
2022-09-12T04:20:40.066Z,12.99
2022-09-12T04:23:25.123Z,12.96
2022-09-12T04:26:11.126Z,12.92
2022-09-12T04:28:57.550Z,12.90
2022-09-12T04:31:43.410Z,12.88
2022-09-12T04:34:31.508Z,12.87
2022-09-12T04:37:16.843Z,12.89
2022-09-12T04:40:02.304Z,12.92
2022-09-12T04:42:47.458Z,12.96
2022-09-12T04:45:33.821Z,12.98
2022-09-12T04:48:19.072Z,12.96
2022-09-12T04:51:16.989Z,12.98
2022-09-12T04:54:15.319Z,13.01
2022-09-12T04:57:00.957Z,13.04
2022-09-12T04:59:46.134Z,13.06
2022-09-12T05:02:33.663Z,13.11
2022-09-12T05:05:18.919Z,13.15
2022-09-12T05:08:04.358Z,13.17
2022-09-12T05:10:49.510Z,13.16
2022-09-12T05:13:35.059Z,13.22
2022-09-12T05:16:21.380Z,13.27
2022-09-12T05:19:07.432Z,13.31
2022-09-12T05:21:52.669Z,13.35
2022-09-12T05:24:39.615Z,13.39
2022-09-12T05:27:25.082Z,13.44
2022-09-12T05:30:11.172Z,13.48
2022-09-12T05:32:56.408Z,13.52
2022-09-12T05:35:41.923Z,13.56
2022-09-12T05:38:28.955Z,13.62
2022-09-12T05:41:25.013Z,13.66
2022-09-12T05:44:13.984Z,13.73
2022-09-12T05:47:04.080Z,13.80
2022-09-12T05:49:51.181Z,13.84
2022-09-12T05:52:39.651Z,13.91
2022-09-12T05:55:24.752Z,13.98
2022-09-12T05:58:10.433Z,14.08
2022-09-12T06:00:56.537Z,14.19
2022-09-12T06:03:47.132Z,14.31
2022-09-12T06:06:36.355Z,14.37
2022-09-12T06:09:22.674Z,14.35
2022-09-12T06:12:08.610Z,14.38
2022-09-12T06:14:54.071Z,14.43
2022-09-12T06:17:39.797Z,14.47
2022-09-12T06:20:24.976Z,14.44
2022-09-12T06:23:10.312Z,14.55
2022-09-12T06:25:56.600Z,14.69
2022-09-12T06:28:42.830Z,14.83
2022-09-12T06:31:31.172Z,14.94
2022-09-12T06:34:16.664Z,15.04
2022-09-12T06:37:03.960Z,15.16
2022-09-12T06:39:50.136Z,15.27
2022-09-12T06:42:35.593Z,15.37
2022-09-12T06:45:21.387Z,15.52
2022-09-12T06:48:07.117Z,15.68
2022-09-12T06:51:00.329Z,15.83
2022-09-12T06:53:46.892Z,15.88
2022-09-12T06:56:32.497Z,15.99
2022-09-12T06:59:18.291Z,16.02
2022-09-12T07:02:03.842Z,16.02
2022-09-12T07:04:51.737Z,16.11
2022-09-12T07:07:38.605Z,16.24
2022-09-12T07:10:24.024Z,16.34
2022-09-12T07:13:09.277Z,16.25
2022-09-12T07:15:54.532Z,16.31
2022-09-12T07:18:40.399Z,16.39
2022-09-12T07:21:26.764Z,16.50
2022-09-12T07:24:12.009Z,16.63
2022-09-12T07:26:57.390Z,16.77
2022-09-12T07:29:42.513Z,16.89
2022-09-12T07:32:27.876Z,17.03
2022-09-12T07:35:13.551Z,16.95
2022-09-12T07:37:58.677Z,17.03
2022-09-12T07:40:44.151Z,17.16
2022-09-12T07:43:29.218Z,17.07
2022-09-12T07:46:17.304Z,16.98
2022-09-12T07:49:03.054Z,16.95
2022-09-12T07:51:48.554Z,16.91
2022-09-12T07:54:33.908Z,16.97
2022-09-12T07:57:19.427Z,17.00
2022-09-12T08:00:05.755Z,17.05
2022-09-12T08:02:57.611Z,17.02
2022-09-12T08:05:43.116Z,17.07
2022-09-12T08:08:29.162Z,17.16
2022-09-12T08:11:17.841Z,17.29
2022-09-12T08:14:05.530Z,17.49
2022-09-12T08:16:50.796Z,17.72
2022-09-12T08:19:36.112Z,17.83
2022-09-12T08:22:21.902Z,17.91
2022-09-12T08:25:08.631Z,17.78
2022-09-12T08:27:54.235Z,17.82
2022-09-12T08:30:39.655Z,17.97
2022-09-12T08:33:27.290Z,17.98
2022-09-12T08:36:24.247Z,18.20
2022-09-12T08:39:12.398Z,18.16
2022-09-12T08:42:06.292Z,18.10
2022-09-12T08:45:15.088Z,18.29
2022-09-12T08:48:04.495Z,18.40
2022-09-12T08:50:50.179Z,18.59
2022-09-12T08:53:37.413Z,18.65
2022-09-12T08:56:26.482Z,18.61
2022-09-12T08:59:13.791Z,18.58
2022-09-12T09:02:04.378Z,18.69
2022-09-12T09:05:00.860Z,18.63
2022-09-12T09:08:05.435Z,18.86
2022-09-12T09:10:59.347Z,19.14
2022-09-12T09:14:17.399Z,19.23
2022-09-12T09:17:03.252Z,19.49
2022-09-12T09:19:58.790Z,19.29
2022-09-12T09:22:50.545Z,19.00
2022-09-12T09:26:03.900Z,19.04
2022-09-12T09:28:54.219Z,19.24
2022-09-12T09:31:40.841Z,19.41
2022-09-12T09:34:30.083Z,19.44
2022-09-12T09:37:42.138Z,19.63
2022-09-12T09:40:53.436Z,19.60
2022-09-12T09:43:38.876Z,19.62
2022-09-12T09:46:24.601Z,19.74
2022-09-12T09:49:14.544Z,19.83
2022-09-12T09:52:01.026Z,20.00
2022-09-12T09:54:59.492Z,20.23
2022-09-12T09:57:46.891Z,20.28
2022-09-12T10:00:35.380Z,19.90
2022-09-12T10:03:37.543Z,19.74
2022-09-12T10:06:32.355Z,19.75
2022-09-12T10:09:20.882Z,19.61
2022-09-12T10:12:22.022Z,19.78
2022-09-12T10:15:34.648Z,19.89
2022-09-12T10:18:34.764Z,19.91
2022-09-12T10:21:36.170Z,19.93
2022-09-12T10:24:26.648Z,19.84
2022-09-12T10:27:11.666Z,19.75
2022-09-12T10:30:04.441Z,19.95
2022-09-12T10:32:50.801Z,20.22
2022-09-12T10:35:45.983Z,20.48
2022-09-12T10:38:32.744Z,20.69
2022-09-12T10:41:18.640Z,20.73
2022-09-12T10:44:31.841Z,20.34
2022-09-12T10:47:27.126Z,20.03
2022-09-12T11:28:52.807Z,19.23
2022-09-12T11:32:00.403Z,19.27
2022-09-12T11:35:00.753Z,19.31
2022-09-12T11:38:03.779Z,19.56
2022-09-12T11:40:55.880Z,19.57
2022-09-12T11:43:55.373Z,19.55
2022-09-12T11:46:43.519Z,19.63
2022-09-12T11:49:41.192Z,19.74
2022-09-12T11:52:35.745Z,19.85
2022-09-12T11:55:28.229Z,20.06
2022-09-12T11:58:14.950Z,20.48
2022-09-12T12:01:15.186Z,20.80
2022-09-12T12:04:07.940Z,21.02
2022-09-12T12:07:02.452Z,21.27
2022-09-12T12:09:52.764Z,21.28
2022-09-12T12:12:38.421Z,21.37
2022-09-12T12:15:25.499Z,21.46
2022-09-12T12:18:27.245Z,21.10
2022-09-12T12:21:21.777Z,21.16
2022-09-12T12:24:10.090Z,21.18
2022-09-12T12:27:01.185Z,21.28
2022-09-12T12:29:46.609Z,21.36
2022-09-12T12:32:31.928Z,21.21
2022-09-12T12:35:46.732Z,21.40
2022-09-12T12:38:39.762Z,21.59
2022-09-12T12:41:25.132Z,21.70
2022-09-12T12:44:44.934Z,21.68
2022-09-12T12:47:41.656Z,21.69
2022-09-12T12:50:30.445Z,21.70
2022-09-12T12:53:28.090Z,21.69
2022-09-12T12:56:41.957Z,21.64
2022-09-12T12:59:27.553Z,21.65
2022-09-12T13:02:38.374Z,21.71
2022-09-12T13:05:26.430Z,21.66
2022-09-12T13:08:17.811Z,21.68
2022-09-12T13:11:16.746Z,21.68
2022-09-12T13:14:09.451Z,21.69
2022-09-12T13:17:01.286Z,21.67
2022-09-12T13:19:48.574Z,21.70
2022-09-12T13:22:48.667Z,21.72
2022-09-12T13:25:36.261Z,21.70
2022-09-12T13:28:22.494Z,21.72
2022-09-12T13:31:19.693Z,21.77
2022-09-12T13:34:07.858Z,21.77
2022-09-12T13:37:16.208Z,21.75
2022-09-12T13:40:26.624Z,21.74
2022-09-12T13:43:35.558Z,21.78
2022-09-12T13:46:31.364Z,21.69
2022-09-12T13:49:34.971Z,21.62
2022-09-12T13:52:25.451Z,21.62
2022-09-12T13:55:25.008Z,21.63
2022-09-12T13:58:21.634Z,21.50
2022-09-12T14:01:20.379Z,21.51
2022-09-12T14:04:44.771Z,21.57
2022-09-12T14:07:31.587Z,21.57
2022-09-12T14:10:23.699Z,21.61
2022-09-12T14:13:22.503Z,21.66
2022-09-12T14:16:12.323Z,21.62
2022-09-12T14:18:58.862Z,21.41
2022-09-12T14:21:44.539Z,21.42
2022-09-12T14:24:32.327Z,21.40
2022-09-12T14:27:21.050Z,21.43
2022-09-12T14:30:22.720Z,21.31
2022-09-12T14:33:11.275Z,21.27
2022-09-12T14:36:31.507Z,21.22
2022-09-12T14:39:39.877Z,21.12
2022-09-12T14:42:30.980Z,21.08
2022-09-12T14:45:30.489Z,21.09
2022-09-12T14:48:20.836Z,21.04
2022-09-12T14:51:06.356Z,21.00
2022-09-12T14:53:51.836Z,21.01
2022-09-12T14:56:43.429Z,21.01
2022-09-12T14:59:42.511Z,21.02
2022-09-12T15:02:27.704Z,21.01
2022-09-12T15:05:12.875Z,20.98
2022-09-12T15:08:02.092Z,20.93
2022-09-12T15:10:48.194Z,20.82
2022-09-12T15:13:40.298Z,20.82
2022-09-12T15:16:25.811Z,20.84
2022-09-12T15:19:10.851Z,20.80
2022-09-12T15:21:56.447Z,20.76
2022-09-12T15:24:41.606Z,20.74
2022-09-12T15:27:27.004Z,20.71
2022-09-12T15:30:13.333Z,20.70
2022-09-12T15:33:00.032Z,20.67
2022-09-12T15:35:45.470Z,20.64
2022-09-12T15:38:33.411Z,20.62
2022-09-12T15:41:25.207Z,20.60
2022-09-12T15:44:14.282Z,20.59
2022-09-12T15:46:59.539Z,20.57
2022-09-12T15:49:45.400Z,20.52
2022-09-12T15:52:31.838Z,20.48
2022-09-12T15:55:30.247Z,20.44
2022-09-12T15:58:15.813Z,20.35
2022-09-12T16:01:02.293Z,20.29
2022-09-12T16:03:47.888Z,20.25
2022-09-12T16:06:37.254Z,20.22
2022-09-12T16:09:23.702Z,20.18
2022-09-12T16:12:09.700Z,20.14
2022-09-12T16:14:54.736Z,20.10
2022-09-12T16:17:40.064Z,20.06
2022-09-12T16:20:25.288Z,20.02
2022-09-12T16:23:13.573Z,19.97
2022-09-12T16:26:00.073Z,19.92
2022-09-12T16:28:45.736Z,19.89
2022-09-12T16:31:31.086Z,19.86
2022-09-12T16:34:16.479Z,19.81
2022-09-12T16:37:02.323Z,19.79
2022-09-12T16:39:48.884Z,19.76
2022-09-12T16:42:35.605Z,19.73
2022-09-12T16:45:20.888Z,19.69
2022-09-12T16:48:05.898Z,19.65
2022-09-12T16:50:58.645Z,19.62
2022-09-12T16:53:44.077Z,19.56
2022-09-12T16:56:30.032Z,19.50
2022-09-12T16:59:16.722Z,19.45
2022-09-12T17:02:03.184Z,19.41
2022-09-12T17:04:48.786Z,19.35
2022-09-12T17:07:34.778Z,19.32
2022-09-12T17:10:20.208Z,19.27
2022-09-12T17:13:05.806Z,19.24
2022-09-12T17:15:51.461Z,19.19
2022-09-12T17:18:37.586Z,19.14
2022-09-12T17:21:22.944Z,19.08
2022-09-12T17:24:08.192Z,19.03
2022-09-12T17:26:53.736Z,18.97
2022-09-12T17:29:39.242Z,18.92
2022-09-12T17:32:24.517Z,18.87
2022-09-12T17:35:10.939Z,18.84
2022-09-12T17:37:56.424Z,18.79
2022-09-12T17:40:58.561Z,18.74
2022-09-12T17:43:46.290Z,18.70
2022-09-12T17:46:36.911Z,18.66
2022-09-12T17:49:22.273Z,18.63
2022-09-12T17:52:08.122Z,18.60
2022-09-12T17:54:53.267Z,18.55
2022-09-12T17:57:39.119Z,18.51
2022-09-12T18:00:44.518Z,18.49
2022-09-12T18:03:30.012Z,18.43
2022-09-12T18:06:15.238Z,18.38
2022-09-12T18:09:05.899Z,18.36
2022-09-12T18:11:52.938Z,18.31
2022-09-12T18:14:38.014Z,18.31
2022-09-12T18:17:23.624Z,18.28
2022-09-12T18:20:09.439Z,18.26
2022-09-12T18:22:54.695Z,18.24
2022-09-12T18:25:39.903Z,18.22
2022-09-12T18:28:25.616Z,18.20
2022-09-12T18:31:15.176Z,18.19
2022-09-12T18:34:00.962Z,18.15
2022-09-12T18:36:49.107Z,18.10
2022-09-12T18:39:34.632Z,18.08
2022-09-12T18:42:20.147Z,18.06
2022-09-12T18:45:06.421Z,18.04
2022-09-12T18:47:51.831Z,18.01
2022-09-12T18:50:37.054Z,17.98
2022-09-12T18:53:22.413Z,17.94
2022-09-12T18:56:12.443Z,17.91
2022-09-12T18:58:57.895Z,17.84
2022-09-12T19:01:46.003Z,17.81
2022-09-12T19:04:32.376Z,17.76
2022-09-12T19:07:19.601Z,17.73
2022-09-12T19:10:08.925Z,17.70
2022-09-12T19:12:54.445Z,17.66
2022-09-12T19:15:41.329Z,17.63
2022-09-12T19:18:26.974Z,17.60
2022-09-12T19:21:19.957Z,17.56
2022-09-12T19:24:10.053Z,17.53
2022-09-12T19:26:55.299Z,17.49
2022-09-12T19:29:40.528Z,17.46
2022-09-12T19:32:25.783Z,17.42
2022-09-12T19:35:12.777Z,17.38
2022-09-12T19:37:57.899Z,17.36
2022-09-12T19:40:43.643Z,17.32
2022-09-12T19:43:30.510Z,17.31
2022-09-12T19:46:18.063Z,17.26
2022-09-12T19:49:03.631Z,17.23
2022-09-12T19:51:48.914Z,17.21
2022-09-12T19:54:34.329Z,17.19
2022-09-12T19:57:19.542Z,17.16
2022-09-12T20:00:06.550Z,17.13
2022-09-12T20:02:53.083Z,17.11
2022-09-12T20:05:42.134Z,17.07
2022-09-12T20:08:28.137Z,17.05
2022-09-12T20:11:18.161Z,17.02
2022-09-12T20:14:03.474Z,16.98
2022-09-12T20:16:48.547Z,16.95
2022-09-12T20:19:34.234Z,16.93
2022-09-12T20:22:21.449Z,16.90
2022-09-12T20:25:07.158Z,16.89
2022-09-12T20:27:55.897Z,16.86
2022-09-12T20:30:43.420Z,16.84
2022-09-12T20:33:29.519Z,16.82
2022-09-12T20:36:17.519Z,16.77
2022-09-12T20:39:03.916Z,16.75
2022-09-12T20:41:49.379Z,16.71
2022-09-12T20:44:34.557Z,16.69
2022-09-12T20:47:19.764Z,16.67
2022-09-12T20:50:05.365Z,16.64
2022-09-12T20:52:50.582Z,16.63
2022-09-12T20:55:36.086Z,16.60
2022-09-12T20:58:22.472Z,16.57
2022-09-12T21:01:08.892Z,16.54
2022-09-12T21:03:54.538Z,16.52
2022-09-12T21:06:39.918Z,16.50
2022-09-12T21:09:25.313Z,16.47
2022-09-12T21:12:10.845Z,16.46
2022-09-12T21:14:56.105Z,16.43
2022-09-12T21:17:41.376Z,16.39
2022-09-12T21:20:27.111Z,16.37
2022-09-12T21:23:12.411Z,16.36
2022-09-12T21:26:01.335Z,16.35
2022-09-12T21:28:47.821Z,16.33
2022-09-12T21:31:33.008Z,16.31
2022-09-12T21:34:20.751Z,16.28
2022-09-12T21:37:08.917Z,16.27
2022-09-12T21:39:54.581Z,16.24
2022-09-12T21:42:39.723Z,16.22
2022-09-12T21:45:24.999Z,16.21
2022-09-12T21:48:14.730Z,16.19
2022-09-12T21:51:01.004Z,16.18
2022-09-12T21:53:47.020Z,16.15
2022-09-12T21:56:32.961Z,16.11
2022-09-12T21:59:18.325Z,16.08
2022-09-12T22:02:03.837Z,16.07
2022-09-12T22:04:49.975Z,16.04
2022-09-12T22:07:36.418Z,16.03
2022-09-12T22:10:21.901Z,16.02
2022-09-12T22:13:07.147Z,15.99
2022-09-12T22:15:53.067Z,15.97
2022-09-12T22:18:38.405Z,15.94
2022-09-12T22:21:24.296Z,15.91
2022-09-12T22:24:27.962Z,15.89
2022-09-12T22:27:13.440Z,15.87
2022-09-12T22:29:58.665Z,15.83
2022-09-12T22:32:43.962Z,15.78
2022-09-12T22:35:29.390Z,15.77
2022-09-12T22:38:14.535Z,15.74
2022-09-12T22:41:07.470Z,15.76
2022-09-12T22:43:52.440Z,15.72
2022-09-12T22:46:38.612Z,15.71
2022-09-12T22:49:23.951Z,15.72
2022-09-12T22:52:09.389Z,15.72
2022-09-12T22:54:54.870Z,15.72
2022-09-12T22:57:40.057Z,15.71
2022-09-12T23:00:27.578Z,15.67
2022-09-12T23:03:12.843Z,15.63
2022-09-12T23:05:58.439Z,15.61
2022-09-12T23:08:43.665Z,15.60
2022-09-12T23:11:28.953Z,15.58
2022-09-12T23:14:14.508Z,15.57
2022-09-12T23:16:59.738Z,15.55
2022-09-12T23:19:45.457Z,15.54
2022-09-12T23:22:31.035Z,15.51
2022-09-12T23:25:17.029Z,15.49
2022-09-12T23:28:02.228Z,15.49
2022-09-12T23:30:54.512Z,15.47
2022-09-12T23:33:39.563Z,15.46
2022-09-12T23:36:26.181Z,15.46
2022-09-12T23:39:11.732Z,15.44
2022-09-12T23:41:57.114Z,15.43
2022-09-12T23:44:42.046Z,15.43
2022-09-12T23:47:27.543Z,15.41
2022-09-12T23:50:12.786Z,15.42
2022-09-12T23:52:58.247Z,15.40
2022-09-12T23:55:44.793Z,15.38
2022-09-12T23:58:30.932Z,15.38
